tititudorancea.com
Station Historical Data
Daily Summary for February 3, 2018 Units:  Metric    English   Both
« Previous Day
Next Day »
Daily Weekly Monthly Yearly Custom
  High: Low: Average:
Temperature: -17.8 °C 12.6 °C 19.7 °C
Dew Point: -17.8 °C 9.7 °C 11.9 °C
Humidity: Humidity % 31 % 65 %
Wind Speed: 0 km/h 1.6 km/h 11.9 km/h
Wind Gust: 0 km/h - -
Wind:- - South
Pressure: 0 hPa 1017.5 hPa -
Precipitation: 0 mm    
Historical Graphs
 
 
Ararat weather Find more about Weather in Ararat, AU


 



 


Tabular Data for February 3, 2018
Time Temperature Dew Point Pressure Wind Wind Speed Wind Gust Humidity Rainfall Rate (Hourly)
-17.8 °C -17.8 °C 0 hPa Calm     Humidity % 0 mm
00:04 14.6 °C 11.3 °C 1018.8 hPa North 6 km/h 16.7 km/h 81 % 0 mm
00:09 14.5 °C 11.4 °C 1018.8 hPa SSE 9.3 km/h 16.7 km/h 82 % 0 mm
00:14 14.4 °C 11.6 °C 1019.2 hPa SSE 7.2 km/h 13 km/h 83 % 0 mm
00:19 14.3 °C 11.5 °C 1019.2 hPa North 7.9 km/h 13 km/h 83 % 0 mm
00:24 14.2 °C 11.4 °C 1018.8 hPa North 4.5 km/h 7.4 km/h 83 % 0 mm
00:29 14.1 °C 11.3 °C 1018.8 hPa SSE 3.4 km/h 8 km/h 83 % 0 mm
00:34 14 °C 11.3 °C 1018.8 hPa SSE 3.5 km/h 8 km/h 84 % 0 mm
00:39 13.9 °C 11.2 °C 1018.8 hPa SSE 4.5 km/h 7.4 km/h 84 % 0 mm
00:44 13.8 °C 11.3 °C 1019.2 hPa North 5.8 km/h 9.3 km/h 85 % 0 mm
00:49 13.8 °C 11.3 °C 1019.2 hPa North 3.1 km/h 5.6 km/h 85 % 0 mm
00:54 13.8 °C 11.6 °C 1019.2 hPa SSE 6.8 km/h 9.3 km/h 86 % 0 mm
00:59 13.8 °C 11.6 °C 1019.2 hPa SSE 7.2 km/h 11.1 km/h 86 % 0 mm
01:04 13.9 °C 11.6 °C 1018.8 hPa SSE 7.9 km/h 13 km/h 86 % 0 mm
01:09 13.8 °C 11.6 °C 1018.8 hPa SSE 8.5 km/h 13 km/h 86 % 0 mm
01:14 13.8 °C 11.5 °C 1018.8 hPa North 9 km/h 12.9 km/h 86 % 0 mm
01:19 13.7 °C 11.4 °C 1018.8 hPa North 5.1 km/h 9.3 km/h 86 % 0 mm
01:24 13.7 °C 11.4 °C 1018.8 hPa SSE 4.2 km/h 8 km/h 86 % 0 mm
01:29 13.7 °C 11.6 °C 1018.8 hPa North 6 km/h 9.7 km/h 87 % 0 mm
01:34 13.8 °C 11.7 °C 1018.8 hPa SSE 8.4 km/h 14.8 km/h 87 % 0 mm
01:39 13.8 °C 11.7 °C 1018.8 hPa SSE 5.1 km/h 13 km/h 87 % 0 mm
01:44 13.8 °C 11.7 °C 1018.8 hPa North 6.6 km/h 13 km/h 87 % 0 mm
01:49 13.8 °C 11.7 °C 1018.5 hPa SSE 7.9 km/h 13 km/h 87 % 0 mm
01:54 13.8 °C 11.7 °C 1018.8 hPa North 5.1 km/h 9.3 km/h 87 % 0 mm
01:59 13.7 °C 11.6 °C 1018.8 hPa SSE 9.2 km/h 16.7 km/h 87 % 0 mm
02:04 13.7 °C 11.8 °C 1018.5 hPa North 10.5 km/h 18.5 km/h 88 % 0 mm
02:09 13.7 °C 11.7 °C 1018.5 hPa SSE 6.4 km/h 11.1 km/h 88 % 0 mm
02:14 13.6 °C 11.7 °C 1018.5 hPa SSE 6.9 km/h 9.3 km/h 88 % 0 mm
02:19 13.6 °C 11.7 °C 1018.5 hPa North 7.1 km/h 11.1 km/h 88 % 0 mm
02:24 13.5 °C 11.7 °C 1018.5 hPa SSE 6.4 km/h 11.1 km/h 89 % 0 mm
02:29 13.5 °C 11.7 °C 1018.5 hPa SSE 2.4 km/h 6.4 km/h 89 % 0 mm
02:34 13.4 °C 11.7 °C 1018.5 hPa North 3.1 km/h 5.6 km/h 89 % 0 mm
02:39 13.5 °C 11.9 °C 1018.5 hPa North 7.1 km/h 11.1 km/h 90 % 0 mm
02:44 13.4 °C 11.8 °C 1018.5 hPa North 4 km/h 5.6 km/h 90 % 0 mm
02:49 13.4 °C 11.8 °C 1018.5 hPa North 5.6 km/h 11.3 km/h 90 % 0 mm
02:54 13.4 °C 11.8 °C 1018.5 hPa North 5.1 km/h 7.4 km/h 90 % 0 mm
02:59 13.4 °C 11.8 °C 1018.5 hPa North 5.1 km/h 11.1 km/h 90 % 0 mm
03:04 13.3 °C 11.7 °C 1018.5 hPa North 6.4 km/h 11.1 km/h 90 % 0 mm
03:09 13.2 °C 11.6 °C 1018.5 hPa North 6.4 km/h 8 km/h 90 % 0 mm
03:14 13.2 °C 11.6 °C 1018.5 hPa SSE 6.6 km/h 9.3 km/h 90 % 0 mm
03:19 13.1 °C 11.7 °C 1018.5 hPa SSE 7.4 km/h 12.9 km/h 91 % 0 mm
03:24 13.1 °C 11.7 °C 1018.5 hPa North 8.4 km/h 14.8 km/h 91 % 0 mm
03:29 13.2 °C 11.7 °C 1018.5 hPa South 10.8 km/h 13 km/h 91 % 0 mm
03:34 13.2 °C 11.7 °C 1018.5 hPa South 8 km/h 13 km/h 91 % 0 mm
03:39 13.2 °C 11.7 °C 1018.5 hPa North 8.7 km/h 13 km/h 91 % 0 mm
03:44 13.1 °C 11.7 °C 1018.5 hPa South 8 km/h 11.1 km/h 91 % 0 mm
03:49 13.1 °C 11.4 °C 1018.5 hPa North 7.2 km/h 11.1 km/h 90 % 0 mm
03:54 13.1 °C 11.4 °C 1018.5 hPa North 10.1 km/h 13 km/h 90 % 0 mm
03:59 13.1 °C 11.4 °C 1018.5 hPa South 10.6 km/h 14.8 km/h 90 % 0 mm
04:04 13.1 °C 11.4 °C 1018.2 hPa North 7.1 km/h 9.3 km/h 90 % 0 mm
04:09 13 °C 11.4 °C 1018.2 hPa North 9.5 km/h 14.8 km/h 90 % 0 mm
04:14 13 °C 11.4 °C 1018.2 hPa SSW 7.9 km/h 12.9 km/h 90 % 0 mm
04:19 13.1 °C 11.7 °C 1018.2 hPa South 10.3 km/h 16.7 km/h 91 % 0 mm
04:24 13.1 °C 11.5 °C 1018.2 hPa South 13.8 km/h 18.5 km/h 90 % 0 mm
04:29 13.1 °C 11.4 °C 1018.2 hPa South 10.3 km/h 18.5 km/h 90 % 0 mm
04:34 13 °C 11.4 °C 1018.2 hPa South 12.6 km/h 24.1 km/h 90 % 0 mm
04:39 13 °C 11.6 °C 1018.2 hPa SSW 9.7 km/h 18.5 km/h 91 % 0 mm
04:44 13 °C 11.6 °C 1018.5 hPa South 8.9 km/h 13 km/h 91 % 0 mm
04:49 13.1 °C 11.7 °C 1018.5 hPa SSW 11.9 km/h 18.5 km/h 91 % 0 mm
04:54 13.2 °C 11.7 °C 1018.5 hPa North 17.2 km/h 20.4 km/h 91 % 0 mm
04:59 13.1 °C 11.5 °C 1018.5 hPa SSW 14.6 km/h 17.7 km/h 90 % 0 mm
05:04 13.1 °C 11.4 °C 1018.5 hPa South 8 km/h 11.3 km/h 90 % 0 mm
05:09 13 °C 11.4 °C 1018.5 hPa North 10.6 km/h 14.5 km/h 90 % 0 mm
05:14 12.9 °C 11.4 °C 1018.5 hPa South 10.6 km/h 16.7 km/h 91 % 0 mm
05:19 12.8 °C 11.3 °C 1018.5 hPa South 7.9 km/h 16.7 km/h 91 % 0 mm
05:24 12.7 °C 11.3 °C 1018.5 hPa South 14.8 km/h 25.9 km/h 91 % 0 mm
05:29 12.7 °C 11.2 °C 1018.5 hPa South 8.2 km/h 18.5 km/h 91 % 0 mm
05:34 12.6 °C 11.2 °C 1018.5 hPa South 9.5 km/h 16.1 km/h 91 % 0 mm
05:39 12.6 °C 11.3 °C 1018.5 hPa North 12.7 km/h 22.2 km/h 92 % 0 mm
05:44 12.6 °C 11.3 °C 1018.5 hPa South 9.8 km/h 18.5 km/h 92 % 0 mm
05:49 12.7 °C 11.4 °C 1018.5 hPa North 12.1 km/h 16.7 km/h 92 % 0 mm
05:54 12.7 °C 11.4 °C 1018.8 hPa South 9 km/h 14.8 km/h 92 % 0 mm
05:59 12.7 °C 11.4 °C 1018.8 hPa South 6.3 km/h 16.7 km/h 92 % 0 mm
06:04 12.7 °C 11.4 °C 1018.8 hPa North 7.4 km/h 11.1 km/h 92 % 0 mm
06:09 12.7 °C 11.4 °C 1018.8 hPa South 5.1 km/h 9.3 km/h 92 % 0 mm
06:14 12.7 °C 11.6 °C 1018.8 hPa North 3.9 km/h 9.3 km/h 93 % 0 mm
06:19 13 °C 11.9 °C 1018.8 hPa SSE 10.5 km/h 18.5 km/h 93 % 0 mm
06:24 13.1 °C 12 °C 1019.2 hPa North 12.9 km/h 18.5 km/h 93 % 0 mm
06:29 13.2 °C 12.1 °C 1019.2 hPa North 8.2 km/h 18.5 km/h 93 % 0 mm
06:34 13.2 °C 12.1 °C 1019.2 hPa SSE 9.2 km/h 11.1 km/h 93 % 0 mm
06:39 13.2 °C 12.1 °C 1019.2 hPa South 12.7 km/h 19.3 km/h 93 % 0 mm
06:44 13.2 °C 12.1 °C 1019.2 hPa North 11.6 km/h 18.5 km/h 93 % 0 mm
06:49 13.1 °C 12 °C 1019.2 hPa South 11.3 km/h 19.3 km/h 93 % 0 mm
06:54 13.1 °C 11.9 °C 1019.2 hPa South 6.4 km/h 7.4 km/h 93 % 0 mm
06:59 13.1 °C 11.9 °C 1019.2 hPa South 10.8 km/h 16.7 km/h 93 % 0 mm
07:04 13.1 °C 11.9 °C 1019.2 hPa SSE 12.2 km/h 16.7 km/h 93 % 0 mm
07:09 13.1 °C 11.9 °C 1019.2 hPa North 11.3 km/h 19.3 km/h 93 % 0 mm
07:14 13.1 °C 11.9 °C 1019.5 hPa South 10.6 km/h 14.8 km/h 93 % 0 mm
07:19 13.1 °C 12 °C 1019.5 hPa South 9 km/h 9.7 km/h 93 % 0 mm
07:24 13.2 °C 12.1 °C 1019.5 hPa South 8.9 km/h 14.8 km/h 93 % 0 mm
07:29 13.3 °C 12.2 °C 1019.5 hPa SSE 8 km/h 13 km/h 93 % 0 mm
07:34 13.3 °C 12.2 °C 1019.9 hPa SSE 9.2 km/h 13 km/h 93 % 0 mm
07:39 13.4 °C 12.3 °C 1019.9 hPa SSE 8.9 km/h 16.7 km/h 93 % 0 mm
07:44 13.5 °C 12.4 °C 1019.9 hPa SSE 5.6 km/h 11.1 km/h 93 % 0 mm
07:49 13.6 °C 12.5 °C 1019.9 hPa SSE 9.8 km/h 14.8 km/h 93 % 0 mm
07:54 13.7 °C 12.6 °C 1019.5 hPa SSE 11.1 km/h 14.8 km/h 93 % 0 mm
07:59 13.9 °C 12.6 °C 1019.9 hPa North 11.3 km/h 16.7 km/h 92 % 0 mm
08:04 14.1 °C 12.8 °C 1019.9 hPa SSE 7.7 km/h 13 km/h 92 % 0 mm
08:09 14.3 °C 13 °C 1019.9 hPa SSE 12.4 km/h 12.9 km/h 92 % 0 mm
08:14 14.4 °C 13 °C 1019.9 hPa North 7.6 km/h 11.1 km/h 91 % 0 mm
08:19 14.8 °C 13.2 °C 1020.2 hPa South 10.8 km/h 18.5 km/h 90 % 0 mm
08:24 15 °C 13.2 °C 1020.2 hPa SE 13 km/h 18.5 km/h 89 % 0 mm
08:29 15.3 °C 13.3 °C 1020.2 hPa South 12.4 km/h 18.5 km/h 88 % 0 mm
08:34 15.6 °C 13.3 °C 1020.2 hPa SE 7.7 km/h 19.3 km/h 86 % 0 mm
08:39 15.8 °C 13.5 °C 1020.2 hPa SE 13.7 km/h 18.5 km/h 86 % 0 mm
08:44 16.2 °C 13.7 °C 1020.2 hPa SE 11.1 km/h 16.1 km/h 85 % 0 mm
08:49 16.3 °C 13.4 °C 1020.2 hPa SSE 17.5 km/h 31.5 km/h 83 % 0 mm
08:54 16.4 °C 13.5 °C 1020.5 hPa SE 11.1 km/h 16.1 km/h 83 % 0 mm
08:59 16.6 °C 13.2 °C 1020.5 hPa SE 20.1 km/h 25.9 km/h 80 % 0 mm
09:04 16.8 °C 13.3 °C 1020.5 hPa SE 21.6 km/h 29.6 km/h 80 % 0 mm
09:09 16.8 °C 13.2 °C 1020.5 hPa SE 10.6 km/h 16.7 km/h 79 % 0 mm
09:14 17.1 °C 13.2 °C 1020.5 hPa SE 14.5 km/h 25.9 km/h 78 % 0 mm
09:19 17.4 °C 13.1 °C 1020.5 hPa SE 13 km/h 33.3 km/h 76 % 0 mm
09:24 17.7 °C 13.4 °C 1020.5 hPa SE 16.1 km/h 25.7 km/h 76 % 0 mm
09:29 18.1 °C 13.3 °C 1020.5 hPa ESE 19 km/h 20.9 km/h 74 % 0 mm
09:34 18.1 °C 13 °C 1020.5 hPa SE 15.4 km/h 33.3 km/h 72 % 0 mm
09:39 18 °C 12.9 °C 1020.5 hPa SE 19.6 km/h 31.5 km/h 72 % 0 mm
09:44 17.9 °C 13.1 °C 1020.5 hPa SE 10.6 km/h 29.6 km/h 73 % 0 mm
09:49 18.3 °C 12.9 °C 1020.5 hPa SE 19.3 km/h 19.3 km/h 71 % 0 mm
09:54 18.8 °C 13.2 °C 1020.5 hPa SSE 14.5 km/h 18.5 km/h 70 % 0 mm
09:59 19.1 °C 13.3 °C 1020.5 hPa ESE 14.2 km/h 18.5 km/h 69 % 0 mm
10:09 19.4 °C 12.9 °C 1020.2 hPa SSE 15 km/h 18.5 km/h 66 % 0 mm
10:14 19.7 °C 12.9 °C 1020.2 hPa ESE 14.5 km/h 22.2 km/h 65 % 0 mm
10:19 19.9 °C 12.6 °C 1020.2 hPa ESE 23.3 km/h 29.6 km/h 63 % 0 mm
10:24 19.9 °C 12.9 °C 1020.2 hPa SE 21.6 km/h 33.3 km/h 64 % 0 mm
10:29 20.5 °C 12.9 °C 1020.2 hPa ESE 18 km/h 29 km/h 62 % 0 mm
10:34 20.8 °C 13.2 °C 1019.9 hPa ESE 14 km/h 22.5 km/h 62 % 0 mm
10:39 21.1 °C 12.7 °C 1019.9 hPa SE 23.2 km/h 27.8 km/h 59 % 0 mm
10:44 21.1 °C 12.7 °C 1019.9 hPa SE 18.8 km/h 27.8 km/h 59 % 0 mm
10:49 21.3 °C 13.2 °C 1019.9 hPa SSE 19.2 km/h 25.7 km/h 60 % 0 mm
10:54 21.3 °C 13 °C 1019.9 hPa SE 16.9 km/h 27.8 km/h 59 % 0 mm
10:59 21.8 °C 12.9 °C 1019.9 hPa SE 10 km/h 22.2 km/h 57 % 0 mm
11:04 22.1 °C 12.9 °C 1020.2 hPa ESE 9.7 km/h 18.5 km/h 56 % 0 mm
11:09 21.9 °C 12.2 °C 1019.9 hPa ESE 20 km/h 29.6 km/h 54 % 0 mm
11:14 21.9 °C 12.2 °C 1019.9 hPa SE 16.7 km/h 20.4 km/h 54 % 0 mm
11:19 22.3 °C 12.5 °C 1019.9 hPa SE 15.9 km/h 24.1 km/h 54 % 0 mm
11:24 22.6 °C 12.6 °C 1019.9 hPa SSE 12.1 km/h 27.8 km/h 53 % 0 mm
11:29 23.1 °C 12.7 °C 1019.9 hPa SE 14.5 km/h 20.4 km/h 52 % 0 mm
11:34 23.3 °C 12.3 °C 1019.5 hPa SE 14.3 km/h 27.8 km/h 50 % 0 mm
11:39 23.4 °C 12.4 °C 1019.9 hPa SE 21.6 km/h 31.5 km/h 50 % 0 mm
11:44 23.1 °C 12.4 °C 1019.5 hPa SE 18.5 km/h 31.5 km/h 51 % 0 mm
11:49 23.1 °C 12.1 °C 1019.9 hPa ESE 16.7 km/h 25.9 km/h 50 % 0 mm
11:54 23.1 °C 12.7 °C 1019.5 hPa SE 14.2 km/h 22.5 km/h 52 % 0 mm
11:59 23.4 °C 12.4 °C 1019.5 hPa NE 14.8 km/h 20.4 km/h 50 % 0 mm
12:04 23.2 °C 12.2 °C 1019.5 hPa SSE 17.1 km/h 22.5 km/h 50 % 0 mm
12:09 23.1 °C 12.4 °C 1019.5 hPa East 6.3 km/h 14.8 km/h 51 % 0 mm
12:14 23.4 °C 12.4 °C 1019.5 hPa SE 18.3 km/h 20.4 km/h 50 % 0 mm
12:19 23.7 °C 12.1 °C 1019.5 hPa ESE 8.9 km/h 18.5 km/h 48 % 0 mm
12:24 23.6 °C 12.3 °C 1019.5 hPa SSE 8.5 km/h 16.7 km/h 49 % 0 mm
12:29 23.7 °C 12.1 °C 1019.2 hPa SE 15.8 km/h 18.5 km/h 48 % 0 mm
12:34 23.9 °C 12.3 °C 1019.2 hPa SSE 11.3 km/h 14.8 km/h 48 % 0 mm
12:39 23.8 °C 12.1 °C 1019.2 hPa SE 14 km/h 16.7 km/h 48 % 0 mm
12:44 24.1 °C 12.1 °C 1019.2 hPa SE 14.6 km/h 24.1 km/h 47 % 0 mm
12:49 24.5 °C 12.1 °C 1019.2 hPa East 5.1 km/h 11.1 km/h 46 % 0 mm
12:54 25.2 °C 12.1 °C 1018.8 hPa SE 13.5 km/h 20.4 km/h 44 % 0 mm
12:59 25.3 °C 12.2 °C 1019.2 hPa ESE 15.8 km/h 27.8 km/h 44 % 0 mm
13:04 25 °C 12.6 °C 1018.8 hPa SE 13.4 km/h 16.7 km/h 46 % 0 mm
13:09 24.9 °C 11.8 °C 1018.8 hPa East 14.8 km/h 24.1 km/h 44 % 0 mm
13:14 25 °C 12.6 °C 1018.8 hPa East 7.4 km/h 11.1 km/h 46 % 0 mm
13:19 25.4 °C 11.6 °C 1018.5 hPa SE 7.7 km/h 18.5 km/h 42 % 0 mm
13:24 25.8 °C 11.2 °C 1018.5 hPa SE 10.3 km/h 18.5 km/h 40 % 0 mm
13:29 26.1 °C 11.4 °C 1018.5 hPa SE 17.4 km/h 29.6 km/h 40 % 0 mm
13:34 25.9 °C 11.6 °C 1018.5 hPa SE 11.3 km/h 18.5 km/h 41 % 0 mm
13:39 26.3 °C 11.7 °C 1018.5 hPa SE 12.1 km/h 18.5 km/h 40 % 0 mm
13:44 26.6 °C 11.4 °C 1018.5 hPa ESE 11.9 km/h 20.4 km/h 39 % 0 mm
13:49 26.2 °C 11.9 °C 1018.5 hPa South 6.8 km/h 16.1 km/h 41 % 0 mm
13:54 26.1 °C 11 °C 1018.5 hPa SE 19 km/h 25.7 km/h 39 % 0 mm
13:59 26.2 °C 11.2 °C 1018.5 hPa ESE 15.6 km/h 25.9 km/h 39 % 0 mm
14:04 26.2 °C 11.2 °C 1018.5 hPa SE 16.9 km/h 18.5 km/h 39 % 0 mm
14:10 25.9 °C 10.9 °C 1018.5 hPa SE 15.6 km/h 27.8 km/h 39 % 0 mm
14:14 26.4 °C 10.6 °C 1018.5 hPa East 10.9 km/h 22.2 km/h 37 % 0 mm
14:20 26.8 °C 10.9 °C 1018.2 hPa SE 11.7 km/h 18.5 km/h 37 % 0 mm
14:24 26.6 °C 10.7 °C 1018.2 hPa SE 16.4 km/h 25.9 km/h 37 % 0 mm
14:30 26.7 °C 10.4 °C 1018.2 hPa ESE 10.9 km/h 16.7 km/h 36 % 0 mm
14:34 26.8 °C 10.9 °C 1018.2 hPa SE 22.5 km/h 24.1 km/h 37 % 0 mm
14:40 26.9 °C 10.9 °C 1018.2 hPa ESE 10.8 km/h 18.5 km/h 37 % 0 mm
14:45 27.2 °C 10.4 °C 1018.2 hPa SE 6.4 km/h 18.5 km/h 35 % 0 mm
14:49 27.3 °C 10.5 °C 1018.2 hPa South 18.5 km/h 29.6 km/h 35 % 0 mm
14:55 26.8 °C 10.4 °C 1018.2 hPa SE 19.6 km/h 24.1 km/h 36 % 0 mm
15:00 26.6 °C 10.3 °C 1018.2 hPa SE 10.5 km/h 20.4 km/h 36 % 0 mm
15:05 26.7 °C 10.8 °C 1018.2 hPa South 16.4 km/h 25.9 km/h 37 % 0 mm
15:10 27.1 °C 10.8 °C 1017.8 hPa SE 15.1 km/h 35.2 km/h 36 % 0 mm
15:15 27.4 °C 10.6 °C 1017.8 hPa ESE 14.8 km/h 20.9 km/h 35 % 0 mm
15:20 27.6 °C 10.7 °C 1017.8 hPa SSE 10.8 km/h 14.8 km/h 35 % 0 mm
15:25 27.6 °C 10.7 °C 1017.8 hPa SSE 12.1 km/h 18.5 km/h 35 % 0 mm
15:30 28.1 °C 10.3 °C 1017.8 hPa ESE 17.5 km/h 20.9 km/h 33 % 0 mm
15:35 28.1 °C 10.3 °C 1017.8 hPa SE 17.9 km/h 22.2 km/h 33 % 0 mm
15:40 28.2 °C 10.4 °C 1017.8 hPa ESE 11.6 km/h 18.5 km/h 33 % 0 mm
15:45 27.9 °C 9.7 °C 1017.8 hPa East 14 km/h 18.5 km/h 32 % 0 mm
15:50 27.9 °C 10.1 °C 1017.8 hPa ESE 16.4 km/h 24.1 km/h 33 % 0 mm
15:55 27.9 °C 10.2 °C 1017.5 hPa SSW 15.8 km/h 20.4 km/h 33 % 0 mm
16:00 28.1 °C 10.3 °C 1017.5 hPa SE 16.3 km/h 27.8 km/h 33 % 0 mm
16:05 28.4 °C 10.6 °C 1017.5 hPa South 14.6 km/h 24.1 km/h 33 % 0 mm
16:10 28.1 °C 10.3 °C 1017.5 hPa SE 11.4 km/h 18.5 km/h 33 % 0 mm
16:15 28.1 °C 10.8 °C 1017.5 hPa SE 10 km/h 20.9 km/h 34 % 0 mm
16:20 28.6 °C 10.2 °C 1017.5 hPa ESE 15.8 km/h 24.1 km/h 32 % 0 mm
16:25 28.5 °C 9.7 °C 1017.5 hPa ESE 15 km/h 22.5 km/h 31 % 0 mm
16:30 28.3 °C 10.1 °C 1017.5 hPa South 12.7 km/h 18.5 km/h 32 % 0 mm
16:35 28.5 °C 10.2 °C 1017.5 hPa SE 14 km/h 18.5 km/h 32 % 0 mm
16:40 28.3 °C 10.4 °C 1017.5 hPa South 12.7 km/h 18.5 km/h 33 % 0 mm
16:45 28.1 °C 10.3 °C 1017.5 hPa SSE 11.7 km/h 20.4 km/h 33 % 0 mm
16:50 28.2 °C 9.9 °C 1017.5 hPa SE 7.6 km/h 11.1 km/h 32 % 0 mm
16:55 28.4 °C 10.6 °C 1017.5 hPa SE 10 km/h 18.5 km/h 33 % 0 mm
17:00 28.4 °C 11.1 °C 1017.5 hPa SSW 10.1 km/h 20.9 km/h 34 % 0 mm
17:05 28.4 °C 10.6 °C 1017.5 hPa ESE 18.2 km/h 24.1 km/h 33 % 0 mm
17:17 28.4 °C 10.6 °C 1017.5 hPa SE 14.8 km/h 22.5 km/h 33 % 0 mm
17:22 28.7 °C 10.3 °C 1017.5 hPa ESE 19.5 km/h 24.1 km/h 32 % 0 mm
17:27 27.9 °C 10.2 °C 1017.5 hPa SE 14.2 km/h 18.5 km/h 33 % 0 mm
17:32 27.9 °C 10.1 °C 1017.5 hPa ESE 14.5 km/h 20.4 km/h 33 % 0 mm
17:37 28.1 °C 10.8 °C 1017.5 hPa SSE 13.2 km/h 22.2 km/h 34 % 0 mm
17:42 28.1 °C 10.7 °C 1017.5 hPa SE 11.1 km/h 18.5 km/h 34 % 0 mm
17:47 27.9 °C 10.6 °C 1017.5 hPa SE 20 km/h 33.3 km/h 34 % 0 mm
17:52 27.8 °C 10.5 °C 1017.5 hPa SE 29.1 km/h 44.4 km/h 34 % 0 mm
17:57 27.7 °C 10.8 °C 1017.5 hPa South 19 km/h 19 km/h 35 % 0 mm
18:02 27.1 °C 10.7 °C 1017.5 hPa SE 12.7 km/h 14.8 km/h 36 % 0 mm
18:07 27.1 °C 10.8 °C 1017.5 hPa SE 13.2 km/h 20.4 km/h 36 % 0 mm
18:12 27.5 °C 10.7 °C 1017.5 hPa SE 20.3 km/h 33.3 km/h 35 % 0 mm
18:17 27.5 °C 11.1 °C 1017.5 hPa SE 12.4 km/h 24.1 km/h 36 % 0 mm
18:22 27.4 °C 11.1 °C 1017.8 hPa SE 12.9 km/h 29.6 km/h 36 % 0 mm
18:27 27.4 °C 11.1 °C 1017.5 hPa SE 14 km/h 20.4 km/h 36 % 0 mm
18:32 27.2 °C 11.2 °C 1017.8 hPa SSE 19.8 km/h 31.5 km/h 37 % 0 mm
18:37 27 °C 11.4 °C 1017.5 hPa SE 22 km/h 31.5 km/h 38 % 0 mm
18:42 26.9 °C 11.4 °C 1017.8 hPa SE 25.4 km/h 31.5 km/h 38 % 0 mm
18:47 26.9 °C 11.8 °C 1017.8 hPa SSE 13.8 km/h 27.8 km/h 39 % 0 mm
18:52 26.8 °C 11.7 °C 1017.8 hPa SE 25.7 km/h 38.9 km/h 39 % 0 mm
18:57 26.6 °C 11.8 °C 1017.8 hPa SE 12.7 km/h 24.1 km/h 40 % 0 mm
19:02 26.5 °C 12.2 °C 1017.8 hPa SSE 16.7 km/h 22.2 km/h 41 % 0 mm
19:07 26.4 °C 12.5 °C 1017.8 hPa SE 18.3 km/h 29 km/h 42 % 0 mm
19:12 26.3 °C 12.3 °C 1017.8 hPa SSE 17.5 km/h 31.5 km/h 42 % 0 mm
19:17 26 °C 12.4 °C 1017.8 hPa SE 9.2 km/h 20.4 km/h 43 % 0 mm
19:22 25.9 °C 12 °C 1017.8 hPa SE 22.4 km/h 31.5 km/h 42 % 0 mm
19:27 25.8 °C 12.2 °C 1018.2 hPa SSE 12.1 km/h 31.5 km/h 43 % 0 mm
19:32 25.6 °C 12.4 °C 1018.2 hPa ESE 18.2 km/h 31.5 km/h 44 % 0 mm
19:38 25.4 °C 12.6 °C 1018.2 hPa SE 15.3 km/h 17.7 km/h 45 % 0 mm
19:43 25.2 °C 12.7 °C 1018.2 hPa SE 15.4 km/h 22.5 km/h 46 % 0 mm
19:48 25.1 °C 12.6 °C 1018.2 hPa SE 12.7 km/h 24.1 km/h 46 % 0 mm
19:53 24.9 °C 13.2 °C 1018.2 hPa SSE 19.2 km/h 33.3 km/h 48 % 0 mm
19:58 24.6 °C 13.1 °C 1018.5 hPa SSE 15.1 km/h 24.1 km/h 49 % 0 mm
20:03 24.3 °C 13.2 °C 1018.5 hPa SE 19.2 km/h 37 km/h 50 % 0 mm
20:08 24 °C 13.6 °C 1018.8 hPa SE 20.3 km/h 27.8 km/h 52 % 0 mm
20:13 23.7 °C 13.6 °C 1018.8 hPa SSE 15.1 km/h 27.8 km/h 53 % 0 mm
20:18 23.5 °C 13.7 °C 1018.8 hPa South 12.2 km/h 18.5 km/h 54 % 0 mm
20:23 23.1 °C 13.6 °C 1018.8 hPa SSE 18.7 km/h 27.8 km/h 55 % 0 mm
20:28 22.7 °C 13.5 °C 1018.8 hPa SSE 10.1 km/h 14.8 km/h 56 % 0 mm
20:33 22.4 °C 13.8 °C 1019.2 hPa SSE 15.8 km/h 22.2 km/h 58 % 0 mm
20:38 22.2 °C 13.6 °C 1019.2 hPa SE 10.9 km/h 20.4 km/h 58 % 0 mm
20:43 21.9 °C 13.6 °C 1019.2 hPa SSE 19.3 km/h 31.5 km/h 59 % 0 mm
20:48 21.7 °C 13.6 °C 1019.2 hPa SSE 13.2 km/h 22.2 km/h 60 % 0 mm
20:53 21.5 °C 13.4 °C 1019.2 hPa South 12.1 km/h 20.4 km/h 60 % 0 mm
20:58 21.3 °C 13.5 °C 1019.2 hPa SSE 10.3 km/h 16.1 km/h 61 % 0 mm
21:03 21.1 °C 13.3 °C 1019.5 hPa SSE 14.5 km/h 24.1 km/h 61 % 0 mm
21:08 21 °C 13.4 °C 1019.5 hPa SE 17.4 km/h 24.1 km/h 62 % 0 mm
21:13 20.8 °C 13.3 °C 1019.5 hPa SSE 12.6 km/h 18.5 km/h 62 % 0 mm
21:18 20.7 °C 13.4 °C 1019.5 hPa SSE 12.6 km/h 18.5 km/h 63 % 0 mm
21:23 20.5 °C 13.2 °C 1019.9 hPa SSE 11.1 km/h 18.5 km/h 63 % 0 mm
21:28 20.3 °C 13.3 °C 1019.9 hPa SSE 9.5 km/h 16.7 km/h 64 % 0 mm
21:33 20.2 °C 13.2 °C 1019.9 hPa SSE 6 km/h 11.1 km/h 64 % 0 mm
21:38 20.1 °C 13.3 °C 1019.9 hPa SE 11.3 km/h 16.7 km/h 65 % 0 mm
21:48 19.8 °C 13.2 °C 1020.2 hPa South 8.2 km/h 13 km/h 66 % 0 mm
21:53 19.7 °C 13.2 °C 1020.2 hPa South 13.5 km/h 20.4 km/h 66 % 0 mm
21:58 19.6 °C 13.3 °C 1020.2 hPa SSE 11.4 km/h 18.5 km/h 67 % 0 mm
22:03 19.4 °C 13.2 °C 1020.2 hPa SSE 10.3 km/h 18.5 km/h 67 % 0 mm
22:08 19.3 °C 13.1 °C 1020.2 hPa South 10.5 km/h 14.5 km/h 67 % 0 mm
22:13 19.2 °C 13.2 °C 1020.2 hPa SSE 10.1 km/h 14.8 km/h 68 % 0 mm
22:18 19.1 °C 13.1 °C 1020.5 hPa SSE 8.9 km/h 14.8 km/h 68 % 0 mm
22:23 18.9 °C 13.1 °C 1020.5 hPa South 8 km/h 11.3 km/h 69 % 0 mm
22:28 18.8 °C 12.9 °C 1020.2 hPa South 6.4 km/h 9.3 km/h 69 % 0 mm
22:33 18.7 °C 13.1 °C 1020.2 hPa South 1.6 km/h 3.7 km/h 70 % 0 mm
22:38 18.6 °C 13 °C 1020.2 hPa South 3.5 km/h 6.4 km/h 70 % 0 mm
22:43 18.4 °C 13.1 °C 1020.5 hPa South 6.9 km/h 9.3 km/h 71 % 0 mm
22:48 18.3 °C 13 °C 1020.5 hPa South 7.7 km/h 8 km/h 71 % 0 mm
22:53 18.2 °C 13.1 °C 1020.5 hPa South 7.9 km/h 9.7 km/h 72 % 0 mm
22:58 18.1 °C 13 °C 1020.5 hPa South 9.8 km/h 14.8 km/h 72 % 0 mm
23:03 18.1 °C 12.9 °C 1020.5 hPa South 5.3 km/h 9.3 km/h 72 % 0 mm
23:08 18 °C 13.1 °C 1020.5 hPa South 6.8 km/h 9.7 km/h 73 % 0 mm
23:13 17.9 °C 13 °C 1020.5 hPa South 9.8 km/h 13 km/h 73 % 0 mm
23:18 17.8 °C 13.1 °C 1020.5 hPa South 9.2 km/h 14.5 km/h 74 % 0 mm
23:23 17.8 °C 13.1 °C 1020.5 hPa South 3.4 km/h 6.4 km/h 74 % 0 mm
23:28 17.7 °C 13 °C 1020.5 hPa South 7.7 km/h 11.1 km/h 74 % 0 mm
23:33 17.6 °C 12.9 °C 1020.9 hPa South 7.9 km/h 11.3 km/h 74 % 0 mm
23:38 17.4 °C 12.9 °C 1020.9 hPa South 7.6 km/h 13 km/h 75 % 0 mm
23:43 17.4 °C 13.1 °C 1020.9 hPa South 11.9 km/h 18.5 km/h 76 % 0 mm
23:48 17.3 °C 13.1 °C 1020.9 hPa South 9.2 km/h 16.7 km/h 76 % 0 mm
23:53 17.2 °C 13.2 °C 1020.9 hPa South 7.1 km/h 11.1 km/h 77 % 0 mm
23:58 17.1 °C 13.1 °C 1020.9 hPa South 11.7 km/h 14.8 km/h 77 % 0 mm
Ararat Weather
Compliments of Weather Underground - 2.5 mb
Click here to send mail.


ABOUT

Live weather data from Ararat, Victoria, Australia, 3377
Data uploaded from Cumulus every 5 minutes to Weather Underground.
This site then downloads the raw data for formatting and display.
Metric and imperial data can be displayed. Graphs and historical data available.
Includes Sun and Moon times and rain image live from BOM.

Check out Ararat Weather on Facebook, Twitter and Google +

Help support ongoing costs by checking out the ads





Follow @AraratWeather